createdAt,value
2018-12-05T00:00:10.591Z,77.28
2018-12-05T00:05:08.408Z,75.95
2018-12-05T00:07:37.769Z,75.76
2018-12-05T00:10:07.341Z,76.37
2018-12-05T00:12:36.667Z,75.35
2018-12-05T00:15:06.349Z,75.07
2018-12-05T00:17:35.698Z,75.93
2018-12-05T00:20:06.101Z,75.64
2018-12-05T00:22:35.721Z,75.20
2018-12-05T00:25:05.103Z,76.33
2018-12-05T00:27:34.444Z,75.99
2018-12-05T00:30:04.273Z,75.87
2018-12-05T00:32:33.606Z,75.55
2018-12-05T00:35:04.826Z,75.29
2018-12-05T00:37:34.347Z,75.20
2018-12-05T00:40:03.976Z,74.89
2018-12-05T00:42:33.315Z,76.53
2018-12-05T00:45:02.644Z,77.40
2018-12-05T00:47:32.111Z,76.67
2018-12-05T00:50:01.443Z,76.32
2018-12-05T00:52:30.862Z,76.52
2018-12-05T00:55:00.210Z,75.99
2018-12-05T00:57:29.552Z,76.31
2018-12-05T00:59:59.006Z,77.22
2018-12-05T01:02:28.404Z,76.91
2018-12-05T01:04:57.798Z,76.68
2018-12-05T01:07:27.302Z,76.93
2018-12-05T01:09:56.671Z,76.13
2018-12-05T01:12:26.055Z,76.88
2018-12-05T01:14:55.468Z,76.24
2018-12-05T01:17:25.205Z,76.94
2018-12-05T01:19:54.622Z,77.42
2018-12-05T01:22:24.184Z,78.08
2018-12-05T01:24:53.528Z,78.15
2018-12-05T01:27:22.874Z,77.88
2018-12-05T01:29:52.354Z,78.48
2018-12-05T01:32:21.756Z,78.19
2018-12-05T01:34:51.096Z,78.28
2018-12-05T01:37:20.502Z,78.65
2018-12-05T01:39:49.839Z,77.34
2018-12-05T01:42:19.199Z,77.43
2018-12-05T01:44:48.651Z,77.42
2018-12-05T01:47:18.012Z,76.39
2018-12-05T01:49:47.393Z,75.91
2018-12-05T01:52:16.778Z,75.14
2018-12-05T01:54:46.118Z,75.49
2018-12-05T01:57:15.552Z,75.90
2018-12-05T01:59:45.100Z,76.15
2018-12-05T02:02:14.437Z,76.66
2018-12-05T02:04:43.808Z,76.73
2018-12-05T02:07:13.300Z,76.36
2018-12-05T02:09:44.941Z,76.52
2018-12-05T02:12:14.542Z,76.56
2018-12-05T02:14:43.933Z,77.17
2018-12-05T02:17:13.401Z,77.37
2018-12-05T02:19:42.800Z,76.49
2018-12-05T02:22:12.251Z,76.47
2018-12-05T02:24:41.653Z,76.41
2018-12-05T02:27:11.038Z,75.91
2018-12-05T02:30:00.780Z,75.45
2018-12-05T02:32:30.141Z,76.35
2018-12-05T02:34:59.489Z,76.80
2018-12-05T02:37:28.843Z,76.90
2018-12-05T02:39:58.325Z,76.10
2018-12-05T02:42:27.707Z,76.90
2018-12-05T02:44:57.500Z,76.33
2018-12-05T02:47:27.115Z,76.06
2018-12-05T02:49:56.615Z,76.22
2018-12-05T02:52:26.063Z,76.62
2018-12-05T02:54:55.483Z,77.68
2018-12-05T02:57:25.107Z,77.10
2018-12-05T02:59:54.451Z,77.72
2018-12-05T03:02:23.851Z,78.51
2018-12-05T03:04:53.276Z,77.27
2018-12-05T03:07:22.812Z,76.74
2018-12-05T03:09:52.401Z,76.85
2018-12-05T03:12:22.866Z,77.38
2018-12-05T03:14:52.386Z,77.33
2018-12-05T03:17:21.731Z,77.53
2018-12-05T03:19:51.103Z,76.67
2018-12-05T03:22:20.875Z,77.06
2018-12-05T03:24:50.283Z,77.08
2018-12-05T03:27:19.675Z,76.12
2018-12-05T03:29:49.011Z,76.52
2018-12-05T03:32:18.587Z,75.67
2018-12-05T03:34:48.306Z,75.74
2018-12-05T03:37:17.668Z,76.09
2018-12-05T03:39:47.131Z,76.25
2018-12-05T03:42:16.474Z,75.51
2018-12-05T03:44:46.052Z,75.79
2018-12-05T03:47:15.490Z,75.90
2018-12-05T03:49:49.088Z,75.59
2018-12-05T03:52:18.538Z,75.50
2018-12-05T03:54:49.089Z,75.48
2018-12-05T03:57:19.502Z,75.38
2018-12-05T03:59:48.874Z,75.36
2018-12-05T04:02:18.275Z,75.48
2018-12-05T04:04:47.641Z,76.39
2018-12-05T04:07:17.109Z,76.08
2018-12-05T04:09:46.586Z,76.10
2018-12-05T04:12:15.888Z,77.15
2018-12-05T04:14:45.230Z,76.70
2018-12-05T04:17:14.604Z,77.31
2018-12-05T04:19:43.926Z,76.01
2018-12-05T04:22:13.394Z,76.39
2018-12-05T04:24:42.781Z,76.26
2018-12-05T04:27:12.227Z,76.13
2018-12-05T04:29:41.550Z,76.59
2018-12-05T04:32:10.906Z,76.76
2018-12-05T04:34:40.286Z,76.80
2018-12-05T04:37:09.597Z,77.42
2018-12-05T04:39:39.011Z,77.23
2018-12-05T04:42:08.434Z,77.50
2018-12-05T04:44:37.805Z,77.51
2018-12-05T04:47:07.191Z,77.36
2018-12-05T04:49:36.514Z,76.87
2018-12-05T04:52:05.836Z,77.44
2018-12-05T04:54:35.372Z,77.29
2018-12-05T04:57:04.885Z,76.66
2018-12-05T04:59:34.304Z,77.59
2018-12-05T05:02:04.765Z,77.85
2018-12-05T05:04:34.219Z,77.51
2018-12-05T05:07:03.654Z,77.52
2018-12-05T05:09:33.132Z,76.77
2018-12-05T05:12:02.578Z,76.60
2018-12-05T05:14:33.895Z,77.17
2018-12-05T05:17:03.329Z,76.41
2018-12-05T05:19:32.648Z,76.13
2018-12-05T05:22:02.045Z,76.49
2018-12-05T05:24:31.508Z,77.02
2018-12-05T05:27:00.858Z,76.86
2018-12-05T05:29:30.276Z,76.87
2018-12-05T05:31:59.652Z,77.33
2018-12-05T05:34:29.014Z,76.72
2018-12-05T05:36:58.468Z,77.37
2018-12-05T05:39:27.956Z,77.67
2018-12-05T05:41:57.514Z,77.21
2018-12-05T05:44:26.880Z,77.78
2018-12-05T05:46:56.335Z,78.11
2018-12-05T05:49:26.642Z,77.74
2018-12-05T05:51:56.024Z,77.98
2018-12-05T05:54:25.360Z,77.68
2018-12-05T05:56:54.810Z,77.57
2018-12-05T05:59:24.112Z,78.12
2018-12-05T06:01:53.504Z,77.99
2018-12-05T06:04:22.852Z,78.54
2018-12-05T06:06:52.377Z,77.55
2018-12-05T06:09:21.828Z,77.82
2018-12-05T06:11:51.345Z,77.78
2018-12-05T06:14:20.679Z,77.17
2018-12-05T06:16:50.013Z,78.21
2018-12-05T06:19:19.439Z,77.84
2018-12-05T06:21:48.821Z,78.70
2018-12-05T06:24:18.177Z,78.84
2018-12-05T06:26:47.609Z,78.41
2018-12-05T06:29:16.993Z,78.59
2018-12-05T06:31:46.828Z,78.81
2018-12-05T06:34:16.260Z,78.24
2018-12-05T06:36:45.798Z,78.66
2018-12-05T06:39:15.203Z,78.35
2018-12-05T06:41:44.829Z,78.61
2018-12-05T06:44:14.333Z,78.46
2018-12-05T06:46:43.832Z,78.92
2018-12-05T06:49:13.171Z,78.19
2018-12-05T06:51:42.538Z,79.22
2018-12-05T06:54:12.035Z,78.91
2018-12-05T06:56:41.567Z,79.78
2018-12-05T06:59:11.044Z,79.06
2018-12-05T07:01:40.546Z,79.30
2018-12-05T07:04:10.123Z,78.72
2018-12-05T07:06:39.462Z,79.38
2018-12-05T07:09:09.800Z,78.99
2018-12-05T07:11:39.142Z,78.93
2018-12-05T07:14:08.549Z,79.05
2018-12-05T07:16:39.932Z,79.34
2018-12-05T07:19:09.281Z,79.69
2018-12-05T07:21:38.626Z,79.14
2018-12-05T07:24:09.027Z,79.14
2018-12-05T07:26:38.656Z,79.42
2018-12-05T07:29:08.048Z,79.04
2018-12-05T07:31:37.515Z,78.74
2018-12-05T07:34:06.953Z,78.71
2018-12-05T07:36:36.321Z,78.98
2018-12-05T07:39:07.911Z,78.58
2018-12-05T07:41:37.230Z,78.87
2018-12-05T07:44:06.624Z,78.84
2018-12-05T07:46:36.088Z,79.06
2018-12-05T07:49:05.513Z,78.27
2018-12-05T07:51:34.952Z,78.02
2018-12-05T07:54:04.346Z,78.44
2018-12-05T07:56:33.717Z,79.36
2018-12-05T07:59:03.056Z,79.58
2018-12-05T08:01:32.445Z,80.67
2018-12-05T08:04:01.835Z,80.37
2018-12-05T08:06:31.200Z,80.29
2018-12-05T08:09:00.653Z,80.96
2018-12-05T08:11:30.108Z,80.52
2018-12-05T08:13:59.546Z,79.65
2018-12-05T08:16:28.974Z,80.14
2018-12-05T08:18:58.419Z,80.31
2018-12-05T08:21:27.996Z,80.24
2018-12-05T08:23:57.429Z,79.40
2018-12-05T08:26:26.899Z,80.24
2018-12-05T08:28:56.512Z,80.46
2018-12-05T08:31:25.923Z,80.47
2018-12-05T08:33:55.445Z,79.84
2018-12-05T08:36:24.959Z,79.18
2018-12-05T08:38:54.443Z,80.35
2018-12-05T08:41:23.903Z,79.53
2018-12-05T08:43:53.323Z,79.70
2018-12-05T08:46:22.679Z,79.73
2018-12-05T08:48:52.224Z,79.62
2018-12-05T08:51:21.711Z,79.70
2018-12-05T08:53:51.231Z,78.75
2018-12-05T08:56:20.759Z,78.93
2018-12-05T08:58:50.103Z,79.00
2018-12-05T09:01:19.699Z,78.73
2018-12-05T09:03:49.165Z,79.21
2018-12-05T09:06:18.547Z,78.81
2018-12-05T09:08:48.013Z,78.45
2018-12-05T09:11:17.426Z,77.77
2018-12-05T09:13:46.740Z,77.70
2018-12-05T09:16:16.097Z,77.82
2018-12-05T09:18:45.627Z,77.21
2018-12-05T09:21:15.074Z,77.53
2018-12-05T09:23:44.455Z,77.31
2018-12-05T09:26:13.883Z,76.53
2018-12-05T09:28:43.199Z,76.47
2018-12-05T09:31:12.637Z,76.19
2018-12-05T09:33:41.985Z,75.55
2018-12-05T09:36:11.533Z,75.01
2018-12-05T09:38:40.995Z,74.56
2018-12-05T09:41:10.335Z,74.53
2018-12-05T09:43:39.852Z,74.46
2018-12-05T09:46:09.236Z,74.62
2018-12-05T09:48:38.467Z,74.11
2018-12-05T09:51:07.571Z,74.38
2018-12-05T09:53:36.754Z,73.34
2018-12-05T09:56:05.955Z,73.84
2018-12-05T09:58:35.130Z,72.58
2018-12-05T10:01:04.364Z,72.99
2018-12-05T10:03:33.586Z,72.79
2018-12-05T10:06:02.727Z,72.67
2018-12-05T10:08:31.901Z,72.71
2018-12-05T10:11:01.004Z,71.94
2018-12-05T10:13:30.378Z,72.10
2018-12-05T10:15:59.616Z,72.07
2018-12-05T10:18:28.936Z,72.45
2018-12-05T10:20:58.084Z,71.70
2018-12-05T10:23:27.388Z,70.82
2018-12-05T10:25:56.472Z,71.02
2018-12-05T10:28:25.689Z,72.06
2018-12-05T10:30:54.824Z,71.89
2018-12-05T10:33:24.123Z,71.82
2018-12-05T10:35:53.273Z,71.81
2018-12-05T10:38:22.659Z,71.87
2018-12-05T10:40:51.755Z,71.94
2018-12-05T10:43:21.179Z,72.67
2018-12-05T10:45:50.577Z,71.78
2018-12-05T10:48:19.675Z,71.46
2018-12-05T10:50:48.751Z,70.99
2018-12-05T10:53:17.907Z,71.42
2018-12-05T10:55:47.271Z,70.94
2018-12-05T10:58:16.383Z,71.31
2018-12-05T11:00:50.959Z,72.33
2018-12-05T11:03:25.450Z,71.32
2018-12-05T11:06:00.103Z,70.44
2018-12-05T11:08:34.844Z,70.17
2018-12-05T11:11:09.356Z,70.50
2018-12-05T11:13:43.903Z,71.11
2018-12-05T11:16:18.417Z,71.42
2018-12-05T11:18:52.857Z,70.30
2018-12-05T11:21:27.555Z,71.07
2018-12-05T11:24:03.737Z,71.36
2018-12-05T11:26:34.987Z,70.70
2018-12-05T11:29:04.139Z,71.53
2018-12-05T11:31:33.372Z,71.55
2018-12-05T11:34:02.612Z,71.11
2018-12-05T11:36:31.964Z,71.51
2018-12-05T11:39:01.335Z,71.39
2018-12-05T11:41:30.756Z,71.25
2018-12-05T11:43:59.845Z,70.91
2018-12-05T11:46:29.080Z,70.43
2018-12-05T11:48:58.208Z,71.31
2018-12-05T11:51:27.406Z,71.20
2018-12-05T11:53:56.514Z,70.63
2018-12-05T11:56:25.808Z,71.88
2018-12-05T11:58:55.904Z,71.11
2018-12-05T12:01:25.134Z,71.07
2018-12-05T12:03:54.283Z,72.00
2018-12-05T12:06:23.432Z,71.75
2018-12-05T12:08:52.593Z,71.99
2018-12-05T12:11:23.075Z,71.91
2018-12-05T12:13:52.728Z,71.30
2018-12-05T12:16:21.960Z,72.06
2018-12-05T12:18:51.086Z,72.61
2018-12-05T12:21:20.220Z,71.84
2018-12-05T12:23:49.365Z,72.68
2018-12-05T12:26:18.686Z,72.16
2018-12-05T12:28:47.786Z,72.40
2018-12-05T12:31:17.000Z,72.75
2018-12-05T12:33:46.116Z,72.82
2018-12-05T12:36:15.214Z,73.18
2018-12-05T12:38:44.299Z,72.67
2018-12-05T12:41:13.565Z,73.83
2018-12-05T12:43:42.647Z,73.33
2018-12-05T12:46:11.750Z,73.07
2018-12-05T12:48:40.971Z,73.76
2018-12-05T12:51:10.055Z,73.68
2018-12-05T12:53:39.156Z,74.54
2018-12-05T12:56:08.271Z,74.23
2018-12-05T12:58:37.984Z,74.28
2018-12-05T13:01:07.075Z,74.09
2018-12-05T13:03:36.245Z,74.26
2018-12-05T13:06:05.387Z,73.87
2018-12-05T13:08:34.521Z,74.15
2018-12-05T13:11:03.667Z,74.46
2018-12-05T13:13:32.817Z,74.55
2018-12-05T13:16:02.076Z,75.35
2018-12-05T13:18:31.197Z,75.11
2018-12-05T13:21:00.290Z,74.94
2018-12-05T13:23:29.392Z,74.86
2018-12-05T13:25:58.533Z,74.88
2018-12-05T13:28:27.728Z,74.29
2018-12-05T13:30:56.927Z,74.72
2018-12-05T13:33:26.186Z,75.13
2018-12-05T13:35:55.317Z,74.32
2018-12-05T13:38:24.542Z,74.63
2018-12-05T13:40:53.785Z,75.13
2018-12-05T13:43:22.963Z,75.28
2018-12-05T13:45:52.183Z,74.54
2018-12-05T13:48:21.335Z,74.80
2018-12-05T13:50:50.536Z,75.06
2018-12-05T13:53:19.668Z,75.00
2018-12-05T13:55:48.867Z,76.14
2018-12-05T13:58:18.021Z,75.69
2018-12-05T14:00:47.503Z,75.61
2018-12-05T14:03:16.655Z,75.58
2018-12-05T14:05:45.714Z,75.52
2018-12-05T14:08:14.847Z,75.35
2018-12-05T14:10:44.266Z,75.76
2018-12-05T14:13:13.451Z,76.38
2018-12-05T14:15:42.748Z,75.77
2018-12-05T14:18:12.048Z,75.93
2018-12-05T14:20:41.478Z,76.87
2018-12-05T14:23:10.566Z,76.07
2018-12-05T14:25:39.840Z,76.16
2018-12-05T14:28:09.212Z,76.47
2018-12-05T14:30:38.510Z,76.45
2018-12-05T14:33:07.664Z,76.28
2018-12-05T14:35:36.868Z,76.46
2018-12-05T14:38:06.097Z,76.02
2018-12-05T14:40:35.238Z,76.50
2018-12-05T14:43:04.416Z,76.71
2018-12-05T14:45:33.632Z,76.48
2018-12-05T14:48:02.978Z,76.13
2018-12-05T14:50:32.154Z,76.43
2018-12-05T14:53:01.314Z,76.77
2018-12-05T14:55:30.446Z,76.95
2018-12-05T14:57:59.564Z,77.08
2018-12-05T15:00:28.681Z,77.29
2018-12-05T15:02:59.693Z,77.42
2018-12-05T15:05:28.884Z,76.91
2018-12-05T15:07:58.100Z,77.21
2018-12-05T15:10:27.243Z,77.69
2018-12-05T15:12:56.428Z,77.55
2018-12-05T15:15:25.644Z,77.81
2018-12-05T15:17:54.759Z,77.81
2018-12-05T15:20:23.905Z,78.28
2018-12-05T15:22:53.064Z,78.37
2018-12-05T15:25:22.190Z,78.57
2018-12-05T15:27:51.318Z,78.63
2018-12-05T15:30:20.393Z,78.58
2018-12-05T15:32:49.535Z,77.54
2018-12-05T15:35:18.613Z,78.15
2018-12-05T15:37:47.721Z,77.88
2018-12-05T15:40:16.855Z,78.48
2018-12-05T15:42:47.631Z,77.81
2018-12-05T15:45:21.483Z,78.52
2018-12-05T15:47:47.922Z,78.48
2018-12-05T15:50:18.015Z,78.14
2018-12-05T15:52:47.598Z,77.91
2018-12-05T15:55:18.776Z,79.13
2018-12-05T15:57:47.974Z,78.62
2018-12-05T16:00:17.099Z,79.19
2018-12-05T16:02:46.245Z,78.96
2018-12-05T16:05:15.387Z,79.43
2018-12-05T16:07:44.749Z,78.82
2018-12-05T16:10:13.950Z,79.41
2018-12-05T16:12:43.362Z,79.14
2018-12-05T16:15:12.512Z,78.35
2018-12-05T16:17:41.738Z,79.09
2018-12-05T16:20:11.210Z,78.75
2018-12-05T16:22:40.348Z,78.96
2018-12-05T16:25:09.582Z,78.48
2018-12-05T16:27:38.779Z,78.86
2018-12-05T16:30:08.523Z,79.03
2018-12-05T16:32:37.664Z,79.60
2018-12-05T16:35:06.928Z,79.78
2018-12-05T16:37:36.091Z,79.54
2018-12-05T16:40:06.404Z,78.69
2018-12-05T16:42:35.620Z,78.57
2018-12-05T16:45:05.134Z,79.17
2018-12-05T16:47:36.158Z,79.02
2018-12-05T16:50:08.707Z,79.71
2018-12-05T16:52:37.855Z,79.11
2018-12-05T16:55:06.945Z,79.53
2018-12-05T16:57:36.070Z,79.42
2018-12-05T17:00:06.449Z,79.26
2018-12-05T17:02:35.530Z,79.27
2018-12-05T17:05:05.414Z,79.90
2018-12-05T17:07:34.672Z,79.30
2018-12-05T17:10:04.038Z,79.32
2018-12-05T17:12:33.230Z,79.95
2018-12-05T17:15:02.370Z,79.63
2018-12-05T17:17:31.564Z,79.76
2018-12-05T17:20:00.662Z,79.88
2018-12-05T17:22:29.974Z,79.16
2018-12-05T17:24:59.054Z,79.25
2018-12-05T17:27:28.252Z,80.07
2018-12-05T17:29:57.459Z,79.55
2018-12-05T17:32:26.651Z,80.13
2018-12-05T17:34:55.748Z,79.38
2018-12-05T17:37:24.901Z,80.07
2018-12-05T17:39:54.006Z,80.06
2018-12-05T17:42:23.287Z,78.89
2018-12-05T17:44:52.456Z,79.85
2018-12-05T17:47:21.557Z,79.46
2018-12-05T17:49:50.662Z,80.07
2018-12-05T17:52:19.898Z,79.34
2018-12-05T17:54:48.996Z,79.55
2018-12-05T17:57:18.081Z,79.97
2018-12-05T17:59:47.196Z,80.34
2018-12-05T18:02:16.376Z,80.05
2018-12-05T18:04:45.660Z,80.60
2018-12-05T18:07:14.790Z,80.15
2018-12-05T18:09:43.968Z,79.82
2018-12-05T18:12:13.053Z,80.01
2018-12-05T18:14:42.165Z,79.52
2018-12-05T18:17:11.236Z,80.67
2018-12-05T18:19:40.343Z,80.46
2018-12-05T18:22:09.774Z,81.30
2018-12-05T18:24:39.096Z,80.29
2018-12-05T18:27:09.131Z,81.18
2018-12-05T18:29:38.267Z,80.92
2018-12-05T18:32:07.520Z,80.25
2018-12-05T18:34:36.699Z,81.12
2018-12-05T18:37:06.035Z,80.37
2018-12-05T18:39:35.246Z,80.20
2018-12-05T18:42:04.538Z,80.36
2018-12-05T18:44:33.675Z,80.56
2018-12-05T18:47:02.826Z,80.25
2018-12-05T18:49:31.959Z,80.80
2018-12-05T18:52:01.132Z,80.44
2018-12-05T18:54:30.247Z,79.98
2018-12-05T18:56:59.382Z,80.47
2018-12-05T18:59:28.506Z,80.07
2018-12-05T19:01:57.612Z,80.51
2018-12-05T19:04:26.764Z,79.91
2018-12-05T19:06:56.093Z,79.97
2018-12-05T19:09:27.054Z,80.19
2018-12-05T19:11:56.326Z,80.91
2018-12-05T19:14:37.392Z,80.50
2018-12-05T19:17:06.687Z,80.52
2018-12-05T19:19:36.156Z,81.02
2018-12-05T19:22:05.467Z,80.78
2018-12-05T19:24:34.615Z,80.50
2018-12-05T19:27:03.923Z,80.84
2018-12-05T19:29:33.036Z,81.04
2018-12-05T19:32:02.135Z,80.62
2018-12-05T19:34:31.359Z,81.15
2018-12-05T19:37:00.660Z,80.98
2018-12-05T19:39:29.830Z,80.75
2018-12-05T19:41:58.917Z,80.98
2018-12-05T19:44:28.167Z,81.34
2018-12-05T19:46:57.263Z,80.41
2018-12-05T19:49:26.759Z,81.42
2018-12-05T19:51:55.966Z,81.54
2018-12-05T19:54:25.185Z,80.91
2018-12-05T19:56:54.408Z,80.02
2018-12-05T19:59:23.676Z,80.78
2018-12-05T20:01:52.778Z,80.87
2018-12-05T20:04:21.980Z,80.98
2018-12-05T20:06:51.177Z,79.77
2018-12-05T20:09:20.318Z,80.30
2018-12-05T20:11:49.506Z,80.67
2018-12-05T20:14:23.991Z,79.88
2018-12-05T20:16:53.206Z,80.04
2018-12-05T20:19:22.571Z,79.66
2018-12-05T20:21:51.783Z,79.70
2018-12-05T20:31:05.258Z,79.32
2018-12-05T20:33:34.433Z,79.17
2018-12-05T20:36:03.576Z,79.41
2018-12-05T20:38:32.676Z,80.09
2018-12-05T20:41:01.778Z,79.74
2018-12-05T20:43:30.878Z,78.86
2018-12-05T20:46:00.120Z,79.16
2018-12-05T20:48:29.198Z,79.25
2018-12-05T20:50:58.514Z,79.68
2018-12-05T20:53:27.625Z,79.63
2018-12-05T20:55:56.700Z,79.68
2018-12-05T20:58:26.021Z,80.24
2018-12-05T21:00:55.574Z,80.27
2018-12-05T21:03:24.668Z,81.37
2018-12-05T21:05:53.758Z,80.38
2018-12-05T21:08:23.000Z,80.70
2018-12-05T21:10:52.089Z,80.77
2018-12-05T21:13:21.292Z,80.56
2018-12-05T21:15:50.539Z,81.20
2018-12-05T21:18:19.618Z,81.32
2018-12-05T21:20:48.718Z,80.89
2018-12-05T21:23:17.962Z,80.16
2018-12-05T21:25:47.132Z,80.75
2018-12-05T21:28:16.244Z,80.35
2018-12-05T21:30:45.340Z,81.03
2018-12-05T21:33:14.447Z,81.58
2018-12-05T21:35:43.545Z,81.10
2018-12-05T21:38:12.673Z,80.47
2018-12-05T21:40:41.747Z,80.60
2018-12-05T21:43:10.847Z,80.82
2018-12-05T21:45:39.968Z,80.57
2018-12-05T21:48:09.295Z,80.30
2018-12-05T21:50:38.387Z,80.72
2018-12-05T21:53:07.539Z,80.31
2018-12-05T21:55:36.735Z,80.26
2018-12-05T21:58:05.825Z,80.82
2018-12-05T22:00:35.083Z,81.02
2018-12-05T22:03:05.407Z,80.85
2018-12-05T22:05:34.749Z,80.62
2018-12-05T22:08:03.903Z,80.89
2018-12-05T22:10:33.018Z,80.42
2018-12-05T22:13:02.124Z,80.68
2018-12-05T22:15:31.250Z,80.33
2018-12-05T22:18:00.336Z,80.73
2018-12-05T22:20:29.803Z,80.87
2018-12-05T22:22:59.028Z,80.79
2018-12-05T22:25:28.150Z,79.90
2018-12-05T22:27:57.226Z,79.37
2018-12-05T22:30:26.669Z,79.54
2018-12-05T22:32:55.902Z,79.83
2018-12-05T22:35:25.102Z,79.99
2018-12-05T22:37:54.312Z,79.90
2018-12-05T22:40:23.396Z,79.69
2018-12-05T22:42:52.471Z,79.81
2018-12-05T22:45:22.805Z,79.91
2018-12-05T22:47:51.906Z,79.76
2018-12-05T22:50:21.110Z,78.70
2018-12-05T22:52:50.388Z,79.06
2018-12-05T22:55:19.668Z,78.87
2018-12-05T22:57:49.306Z,79.07
2018-12-05T23:00:25.456Z,79.21
2018-12-05T23:02:55.357Z,79.36
2018-12-05T23:05:25.166Z,79.24
2018-12-05T23:07:54.342Z,80.16
2018-12-05T23:10:23.454Z,80.81
2018-12-05T23:12:52.569Z,80.14
2018-12-05T23:15:21.879Z,80.19
2018-12-05T23:17:51.057Z,79.99
2018-12-05T23:20:20.154Z,79.84
2018-12-05T23:22:49.487Z,80.32
2018-12-05T23:25:18.797Z,79.12
2018-12-05T23:27:47.986Z,79.73
2018-12-05T23:30:17.147Z,79.65
2018-12-05T23:32:46.224Z,80.31
2018-12-05T23:35:15.417Z,79.89
2018-12-05T23:37:44.558Z,78.91
2018-12-05T23:40:13.652Z,79.28
2018-12-05T23:42:42.744Z,79.82
2018-12-05T23:45:12.027Z,79.05
2018-12-05T23:47:41.222Z,78.96
2018-12-05T23:50:10.630Z,78.98
2018-12-05T23:52:39.756Z,80.09
2018-12-05T23:55:08.930Z,78.84
2018-12-05T23:57:38.020Z,79.46
